Time;durP1;ratioP1;P1;durP2;ratioP2;P2;SDS_P1;SDS_P2;PMS_P1;PMS_P2;Temp;Humidity;BMP_temperature;BMP_pressure;BME280_temperature;BME280_humidity;BME280_pressure;Samples;Min_cycle;Max_cycle;Signal;HPM_P1;HPM_P2
2023/03/22 00:01:52;;;;;;;23.95;16.67;;;23.50;47.60;;;;;;6126668;28;83304;-65
2023/03/22 00:04:53;;;;;;;23.08;17.15;;;23.50;47.50;;;;;;6127329;28;83258;-65
2023/03/22 00:07:56;;;;;;;25.55;17.35;;;23.50;47.60;;;;;;6125504;28;87840;-65
2023/03/22 00:10:57;;;;;;;23.10;17.50;;;23.50;47.50;;;;;;6113156;28;83456;-65
2023/03/22 00:13:58;;;;;;;25.80;18.42;;;23.50;47.50;;;;;;6126346;28;84122;-64
2023/03/22 00:16:59;;;;;;;24.58;18.05;;;23.50;47.50;;;;;;6127317;28;82883;-65
2023/03/22 00:19:59;;;;;;;24.95;17.52;;;23.50;47.60;;;;;;6126444;28;82725;-64
2023/03/22 00:23:00;;;;;;;24.65;16.33;;;23.50;47.70;;;;;;6126167;28;83433;-66
2023/03/22 00:26:00;;;;;;;23.05;18.00;;;23.50;47.60;;;;;;6124768;28;85713;-63
2023/03/22 00:29:01;;;;;;;22.50;16.15;;;23.50;47.60;;;;;;6126688;28;85888;-64
2023/03/22 00:32:03;;;;;;;24.13;17.77;;;23.50;47.70;;;;;;6125613;28;83082;-64
2023/03/22 00:35:03;;;;;;;23.60;17.08;;;23.50;47.70;;;;;;6108442;28;84805;-63
2023/03/22 00:38:13;;;;;;;24.50;17.95;;;23.50;47.70;;;;;;6126728;28;83211;-63
2023/03/22 00:41:13;;;;;;;24.90;17.48;;;23.50;47.70;;;;;;6116157;28;82860;-64
2023/03/22 00:44:14;;;;;;;21.95;16.73;;;23.50;47.60;;;;;;6108463;28;86196;-62
2023/03/22 00:47:15;;;;;;;27.27;18.40;;;23.50;48.30;;;;;;6126361;28;83236;-63
2023/03/22 00:50:15;;;;;;;22.98;16.98;;;23.50;47.80;;;;;;6107815;28;85760;-64
2023/03/22 00:53:16;;;;;;;22.00;15.70;;;23.50;47.70;;;;;;6126278;28;83287;-62
2023/03/22 00:56:21;;;;;;;22.27;15.98;;;23.50;47.70;;;;;;6107814;28;84626;-63
2023/03/22 00:59:30;;;;;;;22.55;15.70;;;23.50;47.70;;;;;;6123495;28;85166;-63
2023/03/22 01:02:33;;;;;;;23.50;17.58;;;23.50;47.70;;;;;;6148864;28;85855;-62
2023/03/22 01:05:33;;;;;;;24.98;18.17;;;23.50;47.60;;;;;;6150524;28;83338;-62
2023/03/22 01:08:37;;;;;;;23.30;16.42;;;23.40;47.50;;;;;;6148083;28;84942;-62
2023/03/22 01:11:38;;;;;;;22.95;16.88;;;23.50;47.50;;;;;;6137424;28;83313;-62
2023/03/22 01:14:38;;;;;;;22.35;16.48;;;23.50;47.30;;;;;;6147008;28;83514;-62
2023/03/22 01:17:39;;;;;;;22.80;16.83;;;23.40;47.40;;;;;;6148321;28;85555;-62
2023/03/22 01:20:39;;;;;;;21.70;16.42;;;23.50;47.50;;;;;;6150136;28;83006;-62
2023/03/22 01:23:40;;;;;;;22.50;16.50;;;23.50;47.50;;;;;;6147733;28;84697;-64
2023/03/22 01:26:41;;;;;;;22.35;16.25;;;23.40;47.30;;;;;;6148096;28;84798;-65
2023/03/22 01:29:41;;;;;;;21.98;16.70;;;23.40;47.30;;;;;;6149738;28;83996;-66
2023/03/22 01:32:42;;;;;;;22.48;16.15;;;23.50;47.30;;;;;;6146900;28;85956;-66
2023/03/22 01:35:43;;;;;;;21.52;15.48;;;23.40;47.40;;;;;;6148198;28;86357;-65
2023/03/22 01:38:44;;;;;;;23.77;16.67;;;23.40;47.30;;;;;;6147023;28;85571;-65
2023/03/22 01:41:45;;;;;;;21.27;16.10;;;23.40;47.30;;;;;;6147714;28;86005;-66
2023/03/22 01:44:49;;;;;;;21.40;16.17;;;23.40;47.30;;;;;;6148821;28;84140;-65
2023/03/22 01:47:49;;;;;;;20.73;15.40;;;23.40;47.30;;;;;;6147720;28;86394;-66
2023/03/22 01:50:50;;;;;;;22.25;16.33;;;23.40;47.20;;;;;;6147762;28;85380;-65
2023/03/22 01:53:51;;;;;;;21.10;14.77;;;23.40;47.10;;;;;;6146832;28;86240;-67
2023/03/22 01:56:52;;;;;;;20.92;15.18;;;23.40;47.10;;;;;;6147778;28;84854;-67
2023/03/22 02:00:07;;;;;;;21.25;15.32;;;23.40;47.10;;;;;;6147602;28;85556;-67
2023/03/22 02:03:40;;;;;;;21.08;16.00;;;23.40;47.10;;;;;;6139341;28;86962;-65
2023/03/22 02:06:41;;;;;;;20.13;16.50;;;23.40;47.10;;;;;;6147575;28;85765;-65
2023/03/22 02:09:49;;;;;;;20.08;15.02;;;23.40;47.00;;;;;;6140132;28;85993;-66
2023/03/22 02:12:50;;;;;;;21.88;16.17;;;23.40;47.20;;;;;;6143844;28;82904;-66
2023/03/22 02:16:03;;;;;;;23.33;16.02;;;23.40;47.00;;;;;;6147547;28;85508;-66
2023/03/22 02:19:28;;;;;;;21.27;14.82;;;23.40;47.10;;;;;;6146266;28;90194;-67
2023/03/22 02:22:28;;;;;;;22.60;15.50;;;23.40;47.00;;;;;;6145700;28;85276;-66
2023/03/22 02:25:29;;;;;;;21.67;15.30;;;23.40;47.00;;;;;;6147059;28;83045;-66
2023/03/22 02:28:29;;;;;;;18.75;14.30;;;23.40;47.00;;;;;;6147489;28;83025;-65
2023/03/22 02:31:30;;;;;;;20.30;14.43;;;23.40;47.00;;;;;;6144706;28;84206;-65
2023/03/22 02:34:30;;;;;;;18.55;13.27;;;23.40;46.90;;;;;;6146169;28;85826;-64
2023/03/22 02:37:32;;;;;;;19.75;13.32;;;23.30;47.00;;;;;;6146568;28;86085;-64
2023/03/22 02:40:33;;;;;;;19.67;13.90;;;23.30;46.90;;;;;;6148404;28;84178;-64
2023/03/22 02:43:37;;;;;;;20.98;14.10;;;23.30;47.00;;;;;;6148073;28;83125;-64
2023/03/22 02:46:37;;;;;;;20.48;14.50;;;23.30;46.90;;;;;;6148221;28;84385;-65
2023/03/22 02:49:38;;;;;;;19.73;13.85;;;23.30;46.90;;;;;;6147631;28;85917;-64
2023/03/22 02:52:39;;;;;;;17.27;11.93;;;23.30;46.90;;;;;;6148619;28;82863;-62
2023/03/22 02:55:39;;;;;;;18.50;13.55;;;23.30;47.00;;;;;;6147940;28;82760;-63
2023/03/22 02:58:44;;;;;;;19.10;13.93;;;23.30;46.80;;;;;;6140800;28;83020;-67
2023/03/22 03:01:44;;;;;;;16.85;12.75;;;23.30;46.80;;;;;;6123933;28;83207;-66
2023/03/22 03:04:45;;;;;;;19.38;13.63;;;23.30;46.70;;;;;;6123377;28;83325;-64
2023/03/22 03:07:45;;;;;;;19.23;13.98;;;23.30;46.80;;;;;;6122660;28;82813;-67
2023/03/22 03:10:46;;;;;;;17.50;12.98;;;23.30;47.00;;;;;;6094534;28;85720;-67
2023/03/22 03:13:47;;;;;;;19.20;14.18;;;23.30;46.70;;;;;;6106726;28;86293;-67
2023/03/22 03:16:48;;;;;;;20.88;14.10;;;23.30;46.60;;;;;;6109100;28;85795;-66
2023/03/22 03:19:48;;;;;;;19.15;13.68;;;23.30;46.70;;;;;;6108230;28;85459;-64
2023/03/22 03:22:49;;;;;;;16.35;13.25;;;23.30;46.70;;;;;;6125365;28;84407;-65
2023/03/22 03:25:49;;;;;;;15.93;12.40;;;23.30;46.60;;;;;;6110011;28;86256;-63
2023/03/22 03:28:50;;;;;;;17.42;13.30;;;23.30;46.40;;;;;;6097396;28;84149;-61
2023/03/22 03:31:53;;;;;;;19.15;12.93;;;23.30;46.50;;;;;;6127720;28;84123;-61
2023/03/22 03:34:56;;;;;;;18.95;12.85;;;23.30;46.80;;;;;;6109784;28;84191;-66
2023/03/22 03:37:56;;;;;;;16.98;12.38;;;23.30;47.00;;;;;;6116783;28;84912;-64
2023/03/22 03:40:58;;;;;;;16.45;11.85;;;23.30;47.40;;;;;;6110163;28;84092;-63
2023/03/22 03:43:59;;;;;;;17.85;12.60;;;23.30;46.60;;;;;;6113520;28;84822;-64
2023/03/22 03:46:59;;;;;;;16.58;12.73;;;23.30;46.50;;;;;;6098766;28;84258;-63
2023/03/22 03:50:00;;;;;;;14.75;11.68;;;23.30;46.50;;;;;;6126609;28;82785;-63
2023/03/22 03:53:01;;;;;;;16.92;12.50;;;23.30;46.50;;;;;;6126936;28;83230;-65
2023/03/22 03:56:01;;;;;;;18.02;12.73;;;23.30;46.30;;;;;;6102555;28;85713;-63
2023/03/22 03:59:08;;;;;;;17.52;12.88;;;23.30;46.20;;;;;;6120066;28;85539;-66
2023/03/22 04:02:09;;;;;;;15.25;11.88;;;23.30;46.20;;;;;;6147093;28;88771;-65
2023/03/22 04:05:10;;;;;;;16.10;11.40;;;23.30;46.20;;;;;;6151120;28;83421;-66
2023/03/22 04:08:10;;;;;;;16.90;12.40;;;23.30;46.20;;;;;;6149213;28;86067;-66
2023/03/22 04:11:11;;;;;;;16.20;12.02;;;23.30;46.20;;;;;;6145892;28;84141;-66
2023/03/22 04:14:13;;;;;;;13.88;10.68;;;23.30;46.30;;;;;;6148853;28;85537;-66
2023/03/22 04:17:14;;;;;;;14.48;11.68;;;23.30;46.20;;;;;;6149843;28;83324;-65
2023/03/22 04:20:15;;;;;;;16.90;12.85;;;23.30;45.80;;;;;;6149256;28;86300;-65
2023/03/22 04:23:16;;;;;;;15.57;12.40;;;23.30;45.30;;;;;;6149149;28;85871;-66
2023/03/22 04:26:19;;;;;;;15.50;11.15;;;23.30;45.20;;;;;;6149105;28;85441;-67
2023/03/22 04:29:31;;;;;;;14.80;11.35;;;23.40;45.20;;;;;;6149315;28;85980;-63
2023/03/22 04:32:39;;;;;;;16.83;12.23;;;23.40;44.90;;;;;;6145056;28;86794;-63
2023/03/22 04:35:40;;;;;;;15.02;11.40;;;23.50;45.00;;;;;;6136808;28;85700;-63
2023/03/22 04:38:41;;;;;;;16.90;11.60;;;23.50;45.10;;;;;;6149181;28;85774;-63
2023/03/22 04:41:48;;;;;;;15.48;11.18;;;23.50;45.10;;;;;;6145216;28;86865;-62
2023/03/22 04:44:49;;;;;;;14.27;10.70;;;23.50;44.90;;;;;;6147145;28;86041;-63
2023/03/22 04:47:50;;;;;;;15.13;11.15;;;23.60;44.80;;;;;;6141097;28;85725;-64
2023/03/22 04:50:52;;;;;;;14.00;11.07;;;23.60;44.70;;;;;;6147705;28;89751;-64
2023/03/22 04:53:55;;;;;;;14.95;11.57;;;23.60;44.50;;;;;;6148690;28;84823;-64
2023/03/22 04:56:55;;;;;;;17.13;12.13;;;23.70;44.40;;;;;;6147241;28;84341;-62
2023/03/22 04:59:58;;;;;;;14.43;10.82;;;23.70;44.20;;;;;;6149442;28;84001;-62
2023/03/22 05:03:00;;;;;;;13.48;10.70;;;23.70;44.20;;;;;;6140523;28;86337;-62
2023/03/22 05:06:10;;;;;;;13.68;10.18;;;23.70;44.10;;;;;;6141924;28;88213;-58
2023/03/22 05:09:20;;;;;;;14.38;10.90;;;23.70;44.00;;;;;;6143425;28;92264;-59
2023/03/22 05:12:21;;;;;;;13.80;10.40;;;23.70;43.70;;;;;;6143196;28;89763;-58
2023/03/22 05:15:31;;;;;;;18.45;12.10;;;23.70;43.80;;;;;;6140337;28;85751;-55
2023/03/22 05:18:32;;;;;;;22.63;12.48;;;23.70;43.70;;;;;;6117952;28;86453;-62
2023/03/22 05:21:35;;;;;;;15.30;11.90;;;23.70;43.70;;;;;;6142993;28;83387;-65
2023/03/22 05:24:36;;;;;;;17.88;12.15;;;23.70;43.60;;;;;;6148029;28;84385;-63
2023/03/22 05:27:37;;;;;;;17.73;12.27;;;23.70;43.40;;;;;;6146257;28;85727;-59
2023/03/22 05:31:04;;;;;;;15.73;11.07;;;23.80;43.40;;;;;;6144478;28;85423;-59
2023/03/22 05:34:20;;;;;;;15.75;11.32;;;23.80;43.30;;;;;;6145699;28;90451;-61
2023/03/22 05:37:21;;;;;;;17.02;11.45;;;23.80;43.10;;;;;;6145494;28;86441;-66
2023/03/22 05:40:25;;;;;;;17.75;11.25;;;23.80;43.20;;;;;;6144917;28;84119;-68
2023/03/22 05:43:26;;;;;;;16.55;11.30;;;23.70;44.20;;;;;;6146369;28;89135;-65
2023/03/22 05:46:27;;;;;;;17.20;11.43;;;23.80;44.70;;;;;;6146129;28;85518;-68
2023/03/22 05:49:46;;;;;;;24.80;11.77;;;23.80;44.90;;;;;;6145813;28;88284;-64
2023/03/22 05:52:46;;;;;;;17.08;11.65;;;23.80;45.30;;;;;;6146294;28;86021;-63
2023/03/22 05:56:08;;;;;;;21.00;11.68;;;23.70;46.00;;;;;;6142473;28;86284;-61
2023/03/22 05:59:09;;;;;;;17.55;10.20;;;23.70;45.80;;;;;;6142378;28;86389;-62
2023/03/22 06:02:10;;;;;;;18.27;11.30;;;23.70;45.30;;;;;;6139236;28;85198;-72
2023/03/22 06:05:11;;;;;;;14.95;9.63;;;23.80;45.00;;;;;;6135650;28;86446;-66
2023/03/22 06:08:11;;;;;;;19.58;12.02;;;23.70;45.10;;;;;;6132862;28;86109;-68
2023/03/22 06:11:12;;;;;;;22.38;11.32;;;23.70;45.00;;;;;;6136307;28;84534;-63
2023/03/22 06:14:13;;;;;;;17.63;11.20;;;23.70;44.90;;;;;;6118529;28;85407;-64
2023/03/22 06:17:34;;;;;;;16.70;12.35;;;23.70;44.80;;;;;;6132058;28;84335;-64
2023/03/22 06:20:34;;;;;;;17.27;11.68;;;23.70;44.70;;;;;;6140940;28;86219;-71
2023/03/22 06:23:42;;;;;;;15.50;10.68;;;23.70;44.50;;;;;;6142453;28;86592;-69
2023/03/22 06:26:43;;;;;;;14.93;10.48;;;23.60;45.20;;;;;;6142149;28;85861;-70
2023/03/22 06:29:49;;;;;;;17.10;12.18;;;23.60;44.50;;;;;;6144502;28;86117;-72
2023/03/22 06:32:50;;;;;;;15.85;11.55;;;23.60;44.40;;;;;;6099201;28;85920;-73
2023/03/22 06:35:51;;;;;;;14.70;11.23;;;23.60;44.20;;;;;;6145534;28;86523;-69
2023/03/22 06:39:01;;;;;;;18.27;11.98;;;23.60;44.20;;;;;;6139928;28;84301;-62
2023/03/22 06:42:02;;;;;;;17.55;11.77;;;23.50;44.10;;;;;;6140866;28;84013;-60
2023/03/22 06:45:02;;;;;;;16.23;11.18;;;23.50;44.10;;;;;;6143834;28;85567;-59
2023/03/22 06:48:07;;;;;;;15.40;10.77;;;23.50;44.10;;;;;;6137847;28;85430;-61
2023/03/22 06:51:24;;;;;;;15.73;11.75;;;23.40;44.10;;;;;;6133138;28;85587;-60
2023/03/22 06:54:24;;;;;;;16.05;11.27;;;23.50;44.30;;;;;;6135980;28;84290;-60
2023/03/22 06:57:25;;;;;;;15.70;10.80;;;23.50;44.20;;;;;;6116660;28;85947;-63
2023/03/22 07:00:25;;;;;;;15.23;10.90;;;23.50;44.20;;;;;;6119621;28;84577;-64
2023/03/22 07:03:26;;;;;;;15.85;11.43;;;23.50;44.20;;;;;;6090632;28;89464;-66
2023/03/22 07:06:35;;;;;;;16.13;11.18;;;23.50;44.20;;;;;;6119901;28;84360;-61
2023/03/22 07:09:36;;;;;;;14.50;10.95;;;23.50;44.20;;;;;;6121121;28;89188;-65
2023/03/22 07:12:37;;;;;;;15.93;11.93;;;23.50;44.20;;;;;;6133323;28;84722;-64
2023/03/22 07:15:43;;;;;;;16.10;11.35;;;23.50;44.20;;;;;;6142590;28;85706;-59
2023/03/22 07:19:03;;;;;;;14.73;11.35;;;23.50;44.20;;;;;;6119236;28;85874;-60
2023/03/22 07:22:04;;;;;;;13.25;11.02;;;23.50;44.10;;;;;;6139162;28;85327;-59
2023/03/22 07:25:06;;;;;;;16.05;11.27;;;23.50;44.00;;;;;;6138005;28;92900;-59
2023/03/22 07:28:09;;;;;;;17.73;11.70;;;23.50;44.00;;;;;;6126009;28;90294;-61
2023/03/22 07:31:10;;;;;;;14.45;11.23;;;23.50;44.50;;;;;;6114244;28;86309;-58
2023/03/22 07:34:20;;;;;;;16.85;10.85;;;23.50;44.50;;;;;;6139382;28;85947;-62
2023/03/22 07:37:43;;;;;;;16.65;11.13;;;23.50;44.30;;;;;;6137882;28;86649;-65
2023/03/22 07:40:55;;;;;;;16.98;11.27;;;23.50;44.30;;;;;;6128047;28;86035;-63
2023/03/22 07:44:00;;;;;;;15.77;11.35;;;23.50;44.30;;;;;;6113660;28;84229;-63
2023/03/22 07:47:03;;;;;;;15.43;11.45;;;23.50;44.50;;;;;;6119696;28;85148;-66
2023/03/22 07:50:11;;;;;;;20.67;11.75;;;23.50;44.50;;;;;;6113531;28;83187;-62
2023/03/22 07:53:12;;;;;;;15.02;11.20;;;23.50;44.40;;;;;;6113967;28;85377;-64
2023/03/22 07:56:12;;;;;;;17.50;11.48;;;23.50;44.40;;;;;;6111907;28;84695;-66
2023/03/22 07:59:13;;;;;;;16.90;10.93;;;23.50;44.80;;;;;;6102464;28;85006;-66
2023/03/22 08:02:14;;;;;;;16.33;11.50;;;23.60;45.00;;;;;;6139572;28;85870;-64
2023/03/22 08:05:21;;;;;;;16.92;10.80;;;23.60;44.80;;;;;;6139454;28;89566;-64
2023/03/22 08:08:29;;;;;;;14.68;11.02;;;23.70;45.10;;;;;;6138856;28;85969;-64
2023/03/22 08:11:30;;;;;;;15.27;10.50;;;23.70;44.90;;;;;;6142554;28;85398;-62
2023/03/22 08:14:33;;;;;;;14.48;10.75;;;23.70;45.00;;;;;;6139537;28;86982;-64
2023/03/22 08:17:34;;;;;;;17.60;10.48;;;23.70;44.90;;;;;;6144457;28;85724;-63
2023/03/22 08:20:36;;;;;;;15.45;10.07;;;23.80;44.90;;;;;;6136948;28;86261;-62
2023/03/22 08:23:41;;;;;;;15.60;10.90;;;23.80;45.00;;;;;;6137586;28;86990;-64
2023/03/22 08:27:14;;;;;;;13.20;9.32;;;23.80;45.10;;;;;;6140338;28;84099;-67
2023/03/22 08:30:23;;;;;;;14.35;10.50;;;23.80;45.00;;;;;;6146491;28;84996;-68
2023/03/22 08:33:24;;;;;;;13.73;9.85;;;23.80;45.10;;;;;;6142503;28;83722;-62
2023/03/22 08:36:26;;;;;;;17.98;10.00;;;23.90;45.80;;;;;;6132477;28;85698;-66
2023/03/22 08:39:32;;;;;;;15.70;10.63;;;23.90;45.60;;;;;;6140656;28;85498;-71
2023/03/22 08:42:53;;;;;;;14.10;9.93;;;23.90;46.10;;;;;;6111157;28;86237;-67
2023/03/22 08:45:54;;;;;;;14.82;9.13;;;23.90;46.00;;;;;;6127674;28;85824;-66
2023/03/22 08:48:57;;;;;;;14.45;9.80;;;23.90;45.90;;;;;;6122981;28;85542;-64
2023/03/22 08:52:06;;;;;;;15.63;9.35;;;23.90;46.00;;;;;;6127843;28;85507;-66
2023/03/22 08:55:17;;;;;;;12.30;8.68;;;23.90;45.80;;;;;;6113962;28;87944;-64
2023/03/22 08:58:36;;;;;;;12.07;9.07;;;23.90;45.60;;;;;;6106673;28;80437;-66
2023/03/22 09:02:09;;;;;;;14.43;8.80;;;24.00;45.70;;;;;;6091825;28;83292;-62
2023/03/22 09:05:12;;;;;;;12.38;8.70;;;24.00;45.70;;;;;;6099104;28;83414;-66
2023/03/22 09:08:14;;;;;;;11.02;8.57;;;24.00;45.60;;;;;;6089725;28;83815;-70
2023/03/22 09:11:19;;;;;;;15.00;11.20;;;24.00;45.70;;;;;;6052752;28;82149;-69
2023/03/22 09:14:21;;;;;;;18.00;11.95;;;23.90;45.00;;;;;;6112185;28;83855;-71
2023/03/22 09:17:22;;;;;;;18.85;13.32;;;23.80;44.90;;;;;;6091611;28;86075;-71
2023/03/22 09:20:24;;;;;;;18.23;13.88;;;23.70;44.90;;;;;;6082855;28;85405;-71
2023/03/22 09:23:26;;;;;;;19.30;13.38;;;23.70;44.80;;;;;;6088570;28;84450;-70
2023/03/22 09:26:28;;;;;;;20.98;13.82;;;23.60;44.90;;;;;;6090301;28;85995;-63
2023/03/22 09:29:29;;;;;;;20.98;14.10;;;23.50;44.90;;;;;;6101440;28;85996;-64
2023/03/22 09:32:29;;;;;;;21.73;15.05;;;23.50;45.00;;;;;;6091083;28;85243;-63
2023/03/22 09:35:36;;;;;;;27.17;15.07;;;23.40;45.20;;;;;;6078858;28;85640;-70
2023/03/22 09:38:41;;;;;;;23.42;15.35;;;23.20;45.00;;;;;;6089157;28;83136;-68
2023/03/22 09:41:42;;;;;;;22.33;14.50;;;23.10;45.10;;;;;;6094595;28;85587;-69
2023/03/22 09:44:42;;;;;;;26.73;16.30;;;23.00;45.30;;;;;;6076110;28;85742;-60
2023/03/22 09:47:48;;;;;;;22.35;14.82;;;23.00;45.60;;;;;;6097386;28;84917;-60
2023/03/22 09:50:49;;;;;;;23.98;16.02;;;23.00;45.70;;;;;;6100849;28;86140;-60
2023/03/22 09:53:49;;;;;;;23.08;14.27;;;23.00;45.80;;;;;;6108238;28;83359;-59
2023/03/22 09:56:50;;;;;;;28.27;16.13;;;22.90;46.00;;;;;;6109981;28;85114;-61
2023/03/22 09:59:50;;;;;;;26.17;16.65;;;22.80;46.10;;;;;;6097829;28;91534;-61
2023/03/22 10:02:51;;;;;;;26.27;16.52;;;22.80;46.20;;;;;;6113329;28;84118;-63
2023/03/22 10:05:52;;;;;;;24.55;15.40;;;22.80;46.60;;;;;;6106170;28;83635;-59
2023/03/22 10:08:52;;;;;;;21.83;14.80;;;22.80;46.70;;;;;;6107228;28;85401;-68
2023/03/22 10:11:53;;;;;;;27.70;15.55;;;22.80;46.90;;;;;;6107543;28;83329;-70
2023/03/22 10:14:54;;;;;;;21.80;14.43;;;22.90;47.70;;;;;;6124714;28;82946;-60
2023/03/22 10:17:55;;;;;;;25.38;15.63;;;23.00;47.50;;;;;;6131378;28;87181;-69
2023/03/22 10:20:55;;;;;;;23.45;14.90;;;22.90;47.70;;;;;;6130191;28;85811;-61
2023/03/22 10:23:56;;;;;;;22.40;15.00;;;22.90;47.90;;;;;;6126492;28;89371;-69
2023/03/22 10:26:57;;;;;;;17.15;12.05;;;22.90;47.40;;;;;;6136884;28;85337;-69
2023/03/22 10:29:57;;;;;;;18.38;12.43;;;22.90;47.70;;;;;;6138934;28;83725;-71
2023/03/22 10:32:58;;;;;;;18.00;13.02;;;23.00;47.60;;;;;;6140441;28;83236;-75
2023/03/22 10:35:58;;;;;;;20.45;12.70;;;23.00;47.80;;;;;;6139915;28;84807;-70
2023/03/22 10:38:59;;;;;;;20.35;12.68;;;23.00;47.30;;;;;;6135581;28;90734;-72
2023/03/22 10:41:59;;;;;;;19.25;12.20;;;23.00;47.20;;;;;;6139712;28;85204;-63
2023/03/22 10:45:00;;;;;;;16.50;12.20;;;23.00;47.30;;;;;;6137382;28;84489;-62
2023/03/22 10:48:02;;;;;;;18.50;13.18;;;23.00;47.30;;;;;;6120797;28;86259;-70
2023/03/22 10:51:03;;;;;;;15.65;11.75;;;23.00;47.30;;;;;;6125732;28;89600;-68
2023/03/22 10:54:04;;;;;;;19.95;11.43;;;23.00;47.80;;;;;;6111244;28;89490;-70
2023/03/22 10:57:05;;;;;;;16.52;10.07;;;23.10;47.50;;;;;;6086714;28;85010;-68
2023/03/22 11:00:08;;;;;;;16.95;10.50;;;23.10;47.60;;;;;;6095072;28;87054;-67
2023/03/22 11:03:10;;;;;;;17.75;9.50;;;23.20;47.50;;;;;;6103027;28;84244;-70
2023/03/22 11:06:11;;;;;;;15.25;9.52;;;23.20;47.40;;;;;;6123811;28;82899;-69
2023/03/22 11:09:11;;;;;;;16.65;8.82;;;23.30;47.60;;;;;;6125896;28;83500;-69
2023/03/22 11:12:12;;;;;;;13.75;8.80;;;23.30;47.90;;;;;;6126654;28;80481;-69
2023/03/22 11:15:12;;;;;;;12.27;7.80;;;23.30;47.30;;;;;;6131797;28;80417;-70
2023/03/22 11:18:13;;;;;;;11.55;8.05;;;23.40;47.50;;;;;;6118067;28;80603;-68
2023/03/22 11:21:14;;;;;;;14.77;8.15;;;23.40;47.20;;;;;;6129646;28;80548;-69
2023/03/22 11:24:15;;;;;;;12.15;7.88;;;23.50;47.20;;;;;;6131207;28;81008;-71
2023/03/22 11:27:15;;;;;;;11.60;7.47;;;23.60;46.90;;;;;;6130930;28;81458;-71
2023/03/22 11:30:16;;;;;;;12.65;8.63;;;23.60;46.50;;;;;;6130144;28;80899;-70
2023/03/22 11:33:17;;;;;;;16.83;7.55;;;23.70;46.30;;;;;;6131714;28;80803;-71
2023/03/22 11:36:17;;;;;;;10.27;7.43;;;23.70;46.10;;;;;;6131102;28;80777;-70
2023/03/22 11:39:20;;;;;;;12.73;7.63;;;23.70;45.90;;;;;;6130497;28;81102;-70
2023/03/22 11:42:20;;;;;;;10.55;7.70;;;23.60;45.10;;;;;;6111613;28;80989;-70
2023/03/22 11:45:21;;;;;;;9.40;7.18;;;23.60;45.00;;;;;;6124820;28;80667;-70
2023/03/22 11:48:21;;;;;;;15.25;7.07;;;23.30;44.90;;;;;;6129842;28;81002;-71
2023/03/22 11:51:22;;;;;;;11.13;6.30;;;23.20;44.80;;;;;;6131256;28;80367;-61
2023/03/22 11:54:22;;;;;;;9.00;6.57;;;23.30;45.10;;;;;;6129639;28;80851;-62
2023/03/22 11:57:23;;;;;;;9.52;6.22;;;23.30;45.00;;;;;;6130156;28;80518;-62
2023/03/22 12:00:23;;;;;;;9.52;6.82;;;23.40;45.00;;;;;;6138145;28;80328;-62
2023/03/22 12:03:24;;;;;;;10.68;6.68;;;23.50;44.90;;;;;;6128393;28;80180;-61
2023/03/22 12:06:25;;;;;;;10.25;6.30;;;23.50;44.70;;;;;;6128519;28;80424;-61
2023/03/22 12:09:25;;;;;;;11.88;5.68;;;23.60;44.60;;;;;;6127933;28;83324;-70
2023/03/22 12:12:26;;;;;;;10.27;6.35;;;23.70;44.40;;;;;;6121576;28;80649;-70
2023/03/22 12:15:26;;;;;;;12.48;6.82;;;23.70;44.50;;;;;;6129972;28;80695;-69
2023/03/22 12:18:27;;;;;;;9.05;6.25;;;23.70;44.10;;;;;;6117753;28;81064;-70
2023/03/22 12:21:28;;;;;;;10.05;6.50;;;23.70;44.00;;;;;;6141156;28;80812;-69
2023/03/22 12:24:28;;;;;;;12.63;7.25;;;23.70;44.20;;;;;;6130991;28;80399;-70
2023/03/22 12:27:29;;;;;;;10.07;6.13;;;23.70;43.60;;;;;;6141590;28;81749;-61
2023/03/22 12:30:30;;;;;;;11.95;6.70;;;23.70;43.60;;;;;;6128980;28;80706;-69
2023/03/22 12:33:31;;;;;;;10.32;6.22;;;23.70;43.60;;;;;;6130216;28;81179;-69
2023/03/22 12:36:32;;;;;;;9.35;6.15;;;23.80;43.80;;;;;;6131469;28;81379;-70
2023/03/22 12:39:32;;;;;;;11.85;5.93;;;23.80;43.70;;;;;;6135597;28;80070;-70
2023/03/22 12:42:33;;;;;;;8.60;5.50;;;23.80;43.80;;;;;;6130928;28;81037;-70
2023/03/22 12:45:33;;;;;;;9.05;5.38;;;23.80;43.40;;;;;;6152491;28;80783;-70
2023/03/22 12:48:34;;;;;;;7.93;4.38;;;23.40;42.60;;;;;;6126543;28;83324;-69
2023/03/22 12:51:34;;;;;;;7.75;3.85;;;23.00;42.70;;;;;;6141846;28;80618;-70
2023/03/22 12:54:35;;;;;;;6.85;4.32;;;22.80;42.90;;;;;;6148248;28;80334;-69
2023/03/22 12:57:37;;;;;;;7.10;4.45;;;22.70;43.20;;;;;;6135946;28;80842;-69
2023/03/22 13:00:38;;;;;;;10.52;5.97;;;22.40;43.50;;;;;;6150320;28;80640;-72
2023/03/22 13:03:39;;;;;;;11.57;4.50;;;22.30;43.40;;;;;;6118508;28;82483;-68
2023/03/22 13:06:39;;;;;;;5.78;4.20;;;22.40;43.70;;;;;;6129416;28;80087;-68
2023/03/22 13:09:40;;;;;;;4.93;3.17;;;22.50;43.60;;;;;;6144944;28;89333;-69
2023/03/22 13:12:40;;;;;;;6.88;3.10;;;22.20;42.70;;;;;;6126255;28;81395;-69
2023/03/22 13:15:42;;;;;;;5.00;3.20;;;22.00;42.90;;;;;;6127860;28;81690;-68
2023/03/22 13:18:44;;;;;;;6.05;3.30;;;21.90;43.00;;;;;;6116110;28;81435;-68
2023/03/22 13:21:44;;;;;;;5.65;3.05;;;22.00;43.20;;;;;;6089536;28;85681;-68
2023/03/22 13:24:45;;;;;;;5.72;3.63;;;22.00;43.20;;;;;;6146200;28;82975;-68
2023/03/22 13:27:45;;;;;;;3.58;2.78;;;22.10;43.20;;;;;;6133553;28;82708;-63
2023/03/22 13:30:46;;;;;;;6.30;2.80;;;22.10;42.70;;;;;;6143983;28;85682;-62
2023/03/22 13:33:46;;;;;;;4.50;2.40;;;22.00;42.70;;;;;;6143859;28;82011;-63
2023/03/22 13:36:47;;;;;;;8.57;4.80;;;22.20;42.80;;;;;;6140418;28;82489;-61
2023/03/22 13:39:47;;;;;;;8.13;3.35;;;22.50;42.50;;;;;;6145098;28;80666;-66
2023/03/22 13:42:48;;;;;;;3.40;2.97;;;22.50;42.60;;;;;;6150608;28;81271;-62
2023/03/22 13:45:48;;;;;;;3.97;2.88;;;22.50;43.00;;;;;;6147192;28;80598;-63
2023/03/22 13:48:51;;;;;;;4.55;2.85;;;22.80;42.60;;;;;;6132286;28;81387;-60
2023/03/22 13:51:52;;;;;;;9.73;3.53;;;22.50;42.50;;;;;;6143453;28;84753;-61
2023/03/22 13:54:53;;;;;;;4.72;3.13;;;22.60;43.00;;;;;;6129724;28;82895;-60
2023/03/22 13:57:55;;;;;;;3.97;2.80;;;22.60;42.80;;;;;;6143225;28;83995;-59
2023/03/22 14:00:56;;;;;;;3.17;2.47;;;22.60;43.00;;;;;;6147939;28;81390;-71
2023/03/22 14:03:56;;;;;;;6.63;3.53;;;22.90;42.80;;;;;;6148517;28;81509;-68
2023/03/22 14:06:57;;;;;;;4.63;2.85;;;23.10;42.80;;;;;;6142267;28;83098;-68
2023/03/22 14:09:58;;;;;;;4.10;2.70;;;23.30;42.60;;;;;;6142571;28;82026;-70
2023/03/22 14:12:59;;;;;;;6.75;4.10;;;23.30;42.60;;;;;;6151597;28;80620;-67
2023/03/22 14:15:59;;;;;;;5.43;3.85;;;23.10;42.50;;;;;;6150973;28;80578;-67
2023/03/22 14:19:00;;;;;;;5.05;3.70;;;23.20;42.60;;;;;;6148336;28;80705;-59
2023/03/22 14:22:01;;;;;;;3.70;2.70;;;23.20;42.60;;;;;;6149107;28;80827;-58
2023/03/22 14:25:01;;;;;;;6.22;3.10;;;23.30;41.90;;;;;;6148530;28;80947;-59
2023/03/22 14:28:02;;;;;;;6.55;3.00;;;22.90;41.40;;;;;;6149075;28;80401;-59
2023/03/22 14:31:03;;;;;;;3.97;2.95;;;23.20;41.70;;;;;;6156884;28;80625;-59
2023/03/22 14:34:03;;;;;;;6.03;3.10;;;23.20;41.70;;;;;;6154861;28;80827;-58
2023/03/22 14:37:04;;;;;;;3.83;2.80;;;23.40;41.50;;;;;;6151070;28;81059;-65
2023/03/22 14:40:05;;;;;;;4.28;2.50;;;23.30;41.20;;;;;;6151141;28;83437;-66
2023/03/22 14:43:06;;;;;;;2.97;2.50;;;23.40;41.40;;;;;;6149634;28;81181;-66
2023/03/22 14:46:09;;;;;;;4.22;2.60;;;23.50;41.40;;;;;;6151755;28;88474;-66
2023/03/22 14:49:09;;;;;;;3.67;2.40;;;23.40;40.90;;;;;;6150045;28;85267;-66
2023/03/22 14:52:10;;;;;;;4.65;2.78;;;23.10;40.80;;;;;;6150672;28;80969;-65
2023/03/22 14:55:10;;;;;;;2.78;2.15;;;23.00;41.00;;;;;;6116941;28;80712;-67
2023/03/22 14:58:11;;;;;;;4.47;2.35;;;23.10;41.10;;;;;;6145232;28;83311;-67
2023/03/22 15:01:11;;;;;;;5.65;2.72;;;23.30;41.00;;;;;;6120857;28;81160;-65
2023/03/22 15:04:12;;;;;;;4.93;2.50;;;22.90;40.70;;;;;;6127350;28;80442;-68
2023/03/22 15:07:13;;;;;;;4.60;2.42;;;22.80;41.10;;;;;;6125932;28;80603;-66
2023/03/22 15:10:13;;;;;;;6.43;2.80;;;22.60;41.30;;;;;;6120547;28;80926;-67
2023/03/22 15:13:14;;;;;;;5.72;2.45;;;22.80;41.50;;;;;;6125727;28;80319;-58
2023/03/22 15:16:14;;;;;;;4.55;2.88;;;23.10;41.30;;;;;;6125350;28;81318;-60
2023/03/22 15:19:15;;;;;;;4.90;3.28;;;22.70;41.50;;;;;;6124932;28;81492;-58
2023/03/22 15:22:16;;;;;;;4.00;2.97;;;22.90;41.60;;;;;;6109938;28;82977;-60
2023/03/22 15:25:16;;;;;;;4.75;2.72;;;23.10;41.40;;;;;;6127327;28;87247;-59
2023/03/22 15:28:18;;;;;;;5.18;2.95;;;23.00;41.30;;;;;;6127250;28;81183;-60
2023/03/22 15:31:18;;;;;;;3.65;3.03;;;22.70;41.60;;;;;;6130823;28;80323;-64
2023/03/22 15:34:19;;;;;;;3.70;3.17;;;22.90;41.70;;;;;;6130612;28;80458;-67